Aviation Digital Data Service (ADDS)

Output produced by METARs form (0427 UTC 26 May 2018)
found at http://www.aviationweather.gov/adds/metars/
 
TKPK 252339Z 2600/2624 08010KT P6SM VCSH SCT020 
     FM260600 07009KT P6SM VCSH SCT018 SCT030 
     FM261400 09014KT P6SM SCT022 AMD NOT SKED 2602/2611
       
TAF TKPN 252300Z 2600/2624 10011KT 9999 SCT020